Time;durP1;ratioP1;P1;durP2;ratioP2;P2;SDS_P1;SDS_P2;PMS_P1;PMS_P2;Temp;Humidity;BMP_temperature;BMP_pressure;BME280_temperature;BME280_humidity;BME280_pressure;Samples;Min_cycle;Max_cycle;Signal;HPM_P1;HPM_P2
2022/08/08 00:02:41;;;;;;;0.00;0.00;;;14.80;99.90;;;;;;4960796;28;20467;-75
2022/08/08 00:05:21;;;;;;;0.00;0.00;;;14.70;99.90;;;;;;4960809;28;20455;-74
2022/08/08 00:08:20;;;;;;;0.00;0.00;;;14.80;99.90;;;;;;4960913;28;20487;-74
2022/08/08 00:10:56;;;;;;;0.00;0.00;;;14.80;99.90;;;;;;4962768;28;20483;-75
2022/08/08 00:13:30;;;;;;;0.00;0.00;;;14.80;99.90;;;;;;4968235;28;20651;-75
2022/08/08 00:16:24;;;;;;;0.00;0.00;;;14.90;99.90;;;;;;4968986;28;20440;-75
2022/08/08 00:18:59;;;;;;;0.00;0.00;;;14.90;99.90;;;;;;4961677;28;20467;-73
2022/08/08 00:21:36;;;;;;;0.00;0.00;;;14.90;99.90;;;;;;4960569;28;20500;-73
2022/08/08 00:24:16;;;;;;;0.00;0.00;;;15.00;99.90;;;;;;4960133;28;20796;-74
2022/08/08 00:26:49;;;;;;;0.00;0.00;;;15.10;99.90;;;;;;4961292;28;20959;-73
2022/08/08 00:29:23;;;;;;;0.00;0.00;;;15.10;99.90;;;;;;4960090;28;20464;-76
2022/08/08 00:32:15;;;;;;;0.00;0.00;;;15.10;99.90;;;;;;4960395;28;20527;-71
2022/08/08 00:35:34;;;;;;;0.00;0.00;;;15.10;99.90;;;;;;4960411;28;20458;-84
2022/08/08 00:38:40;;;;;;;0.00;0.00;;;15.00;99.90;;;;;;4959772;28;20487;-71
2022/08/08 00:41:58;;;;;;;0.00;0.00;;;15.00;99.90;;;;;;4954559;28;20456;-75
2022/08/08 00:45:14;;;;;;;0.00;0.00;;;14.90;99.90;;;;;;4960269;28;20485;-73
2022/08/08 00:48:25;;;;;;;0.00;0.00;;;14.90;99.90;;;;;;4960118;28;20474;-73
2022/08/08 00:51:40;;;;;;;0.00;0.00;;;14.90;99.90;;;;;;4960230;28;20436;-74
2022/08/08 00:54:42;;;;;;;0.00;0.00;;;14.90;99.90;;;;;;4959958;28;20443;-73
2022/08/08 00:57:53;;;;;;;0.00;0.00;;;14.80;99.90;;;;;;4959837;28;20475;-73
2022/08/08 01:00:28;;;;;;;0.00;0.00;;;14.80;99.90;;;;;;4960008;28;20450;-73
2022/08/08 01:03:37;;;;;;;0.00;0.00;;;14.80;99.90;;;;;;4959226;28;20756;-73
2022/08/08 01:06:59;;;;;;;0.00;0.00;;;14.70;99.90;;;;;;4959334;28;20436;-73
2022/08/08 01:10:00;;;;;;;0.00;0.00;;;14.70;99.90;;;;;;4959768;28;20451;-73
2022/08/08 01:13:10;;;;;;;0.00;0.00;;;14.60;99.90;;;;;;4959703;28;20472;-73
2022/08/08 01:16:16;;;;;;;0.00;0.00;;;14.60;99.90;;;;;;4938216;28;20451;-73
2022/08/08 01:19:44;;;;;;;0.00;0.00;;;14.50;99.90;;;;;;4959461;28;21032;-72
2022/08/08 01:22:57;;;;;;;0.00;0.00;;;14.50;99.90;;;;;;4869900;28;21048;-74
2022/08/08 01:26:11;;;;;;;0.00;0.00;;;14.50;99.90;;;;;;4959451;28;20973;-74
2022/08/08 01:29:13;;;;;;;0.00;0.00;;;14.50;99.90;;;;;;4885668;28;20460;-74
2022/08/08 01:32:22;;;;;;;0.00;0.00;;;14.60;99.90;;;;;;4911150;28;20986;-74
2022/08/08 01:35:19;;;;;;;0.00;0.00;;;14.60;99.90;;;;;;4959672;28;20464;-75
2022/08/08 01:38:28;;;;;;;0.00;0.00;;;14.50;99.90;;;;;;4958986;28;20789;-79
2022/08/08 01:41:05;;;;;;;0.00;0.00;;;14.60;99.90;;;;;;4961419;28;20478;-74
2022/08/08 01:43:48;;;;;;;0.00;0.00;;;14.50;99.90;;;;;;4959435;28;20477;-75
2022/08/08 01:46:39;;;;;;;0.00;0.00;;;14.60;99.90;;;;;;4959061;28;21052;-75
2022/08/08 01:49:17;;;;;;;0.00;0.00;;;14.60;99.90;;;;;;4959400;28;20455;-77
2022/08/08 01:52:08;;;;;;;0.00;0.00;;;14.60;99.90;;;;;;4959369;28;20436;-77
2022/08/08 01:55:09;;;;;;;0.00;0.00;;;14.70;99.90;;;;;;4959671;28;20447;-76
2022/08/08 01:58:13;;;;;;;0.00;0.00;;;14.70;99.90;;;;;;4958871;28;20476;-74
2022/08/08 02:00:51;;;;;;;0.00;0.00;;;14.60;99.90;;;;;;4959331;28;20636;-75
2022/08/08 02:03:38;;;;;;;0.00;0.00;;;14.60;99.90;;;;;;4960402;28;20463;-75
2022/08/08 02:06:38;;;;;;;0.00;0.00;;;14.60;99.90;;;;;;4960839;28;21127;-75
2022/08/08 02:09:29;;;;;;;0.00;0.00;;;14.50;99.90;;;;;;4964915;28;20475;-77
2022/08/08 02:12:23;;;;;;;0.00;0.00;;;14.50;99.90;;;;;;4963272;28;20726;-77
2022/08/08 02:14:59;;;;;;;0.00;0.00;;;14.50;99.90;;;;;;4963477;28;20443;-76
2022/08/08 02:20:40;;;;;;;0.00;0.00;;;14.30;99.90;;;;;;5802835;23;20495;-76
2022/08/08 02:23:35;;;;;;;0.00;0.00;;;14.40;99.90;;;;;;4964275;28;20448;-76
2022/08/08 02:26:10;;;;;;;0.00;0.00;;;14.30;99.90;;;;;;4964874;28;20534;-77
2022/08/08 02:28:54;;;;;;;0.00;0.00;;;14.20;99.90;;;;;;4964841;28;20471;-77
2022/08/08 02:31:39;;;;;;;0.00;0.00;;;14.10;99.90;;;;;;4964935;28;20545;-77
2022/08/08 02:34:40;;;;;;;0.00;0.00;;;14.10;99.90;;;;;;4966666;28;20443;-78
2022/08/08 02:37:39;;;;;;;0.00;0.00;;;14.00;99.90;;;;;;4967694;28;20502;-78
2022/08/08 02:40:33;;;;;;;0.00;0.00;;;14.00;99.90;;;;;;4966319;28;20420;-78
2022/08/08 02:43:44;;;;;;;0.00;0.00;;;13.90;99.90;;;;;;4966532;28;20440;-77
2022/08/08 02:46:52;;;;;;;0.00;0.00;;;13.90;99.90;;;;;;4963929;28;20447;-76
2022/08/08 02:49:51;;;;;;;0.00;0.00;;;13.90;99.90;;;;;;4962859;28;20491;-76
2022/08/08 02:52:50;;;;;;;0.00;0.00;;;14.00;99.90;;;;;;4963440;28;20686;-76
2022/08/08 02:56:02;;;;;;;0.00;0.00;;;14.00;99.90;;;;;;4963737;28;20490;-76
2022/08/08 02:59:10;;;;;;;0.00;0.00;;;14.10;99.90;;;;;;4963130;28;20615;-77
2022/08/08 03:02:35;;;;;;;0.00;0.00;;;14.10;99.90;;;;;;4963077;28;20443;-77
2022/08/08 03:05:28;;;;;;;0.00;0.00;;;14.10;99.90;;;;;;4945594;28;20447;-77
2022/08/08 03:08:51;;;;;;;0.00;0.00;;;14.10;99.90;;;;;;4962382;28;20906;-77
2022/08/08 03:12:05;;;;;;;0.00;0.00;;;14.10;99.90;;;;;;4962370;28;20447;-77
2022/08/08 03:14:54;;;;;;;0.00;0.00;;;14.20;99.90;;;;;;4962376;28;20573;-77
2022/08/08 03:17:48;;;;;;;0.00;0.00;;;14.20;99.90;;;;;;4970362;28;20465;-77
2022/08/08 03:20:48;;;;;;;0.00;0.00;;;14.20;99.90;;;;;;4972598;28;20455;-78
2022/08/08 03:23:21;;;;;;;0.00;0.00;;;14.20;99.90;;;;;;4972261;28;20558;-77
2022/08/08 03:25:51;;;;;;;0.00;0.00;;;14.20;99.90;;;;;;4973025;28;20551;-77
2022/08/08 03:28:26;;;;;;;0.00;0.00;;;14.30;99.90;;;;;;4963863;28;20556;-77
2022/08/08 03:30:56;;;;;;;0.00;0.00;;;14.30;99.90;;;;;;4964630;28;20447;-77
2022/08/08 03:33:43;;;;;;;0.00;0.00;;;14.30;99.90;;;;;;4965399;28;20532;-78
2022/08/08 03:36:28;;;;;;;0.00;0.00;;;14.40;99.90;;;;;;4965187;28;20734;-77
2022/08/08 03:38:59;;;;;;;0.00;0.00;;;14.40;99.90;;;;;;4964872;28;20476;-78
2022/08/08 03:41:43;;;;;;;0.00;0.00;;;14.40;99.90;;;;;;4963297;28;20674;-75
2022/08/08 03:44:32;;;;;;;0.00;0.00;;;14.40;99.90;;;;;;4965175;28;20452;-76
2022/08/08 03:47:01;;;;;;;0.00;0.00;;;14.50;99.90;;;;;;4965534;28;20470;-81
2022/08/08 03:49:47;;;;;;;0.00;0.00;;;14.60;99.90;;;;;;4964971;28;20452;-72
2022/08/08 03:52:26;;;;;;;0.00;0.00;;;14.80;99.90;;;;;;4960891;28;20533;-68
2022/08/08 03:54:56;;;;;;;0.00;0.00;;;14.80;99.90;;;;;;4961326;28;20444;-69
2022/08/08 03:57:38;;;;;;;0.00;0.00;;;14.80;99.90;;;;;;4961119;28;20723;-69
2022/08/08 04:00:29;;;;;;;0.00;0.00;;;14.80;99.90;;;;;;4960591;28;20612;-69
2022/08/08 04:03:00;;;;;;;0.00;0.00;;;14.80;99.90;;;;;;4960874;28;20448;-69
2022/08/08 04:05:32;;;;;;;0.00;0.00;;;14.80;99.90;;;;;;4960973;28;20666;-70
2022/08/08 04:08:05;;;;;;;0.00;0.00;;;14.80;99.90;;;;;;4960852;28;20960;-70
2022/08/08 04:10:36;;;;;;;0.00;0.00;;;14.70;99.90;;;;;;4960503;28;20523;-69
2022/08/08 04:13:04;;;;;;;0.00;0.00;;;14.60;99.90;;;;;;4960503;28;20448;-75
2022/08/08 04:15:45;;;;;;;0.00;0.00;;;14.60;99.90;;;;;;4956274;28;21283;-74
2022/08/08 04:18:31;;;;;;;0.00;0.00;;;14.70;99.90;;;;;;4947242;28;20901;-75
2022/08/08 04:20:59;;;;;;;0.00;0.00;;;14.80;99.90;;;;;;4944929;28;20709;-71
2022/08/08 04:23:27;;;;;;;0.00;0.00;;;14.80;99.90;;;;;;4943811;28;20468;-73
2022/08/08 04:26:16;;;;;;;0.00;0.00;;;14.80;99.90;;;;;;4948930;28;20447;-76
2022/08/08 04:28:46;;;;;;;0.00;0.00;;;14.80;99.90;;;;;;4948945;28;20775;-75
2022/08/08 04:31:14;;;;;;;0.00;0.00;;;14.80;99.90;;;;;;4949683;28;20754;-72
2022/08/08 04:34:01;;;;;;;0.00;0.00;;;14.90;99.90;;;;;;4944866;28;21071;-65
2022/08/08 04:36:31;;;;;;;0.00;0.00;;;14.90;99.90;;;;;;4952385;28;20896;-66
2022/08/08 04:38:59;;;;;;;0.00;0.00;;;15.00;99.90;;;;;;4952363;28;20788;-63
2022/08/08 04:41:48;;;;;;;0.00;0.00;;;15.10;99.90;;;;;;4977122;28;20439;-64
2022/08/08 04:44:17;;;;;;;0.00;0.00;;;15.20;99.90;;;;;;4965519;28;20440;-66
2022/08/08 04:46:47;;;;;;;0.00;0.00;;;15.20;99.90;;;;;;4962284;28;20729;-66
2022/08/08 04:49:19;;;;;;;0.00;0.00;;;15.20;99.90;;;;;;4961639;28;20472;-69
2022/08/08 04:51:55;;;;;;;0.00;0.00;;;15.20;99.90;;;;;;4958966;28;20456;-64
2022/08/08 04:54:24;;;;;;;0.00;0.00;;;15.30;99.90;;;;;;4943901;28;20881;-63
2022/08/08 04:57:10;;;;;;;0.00;0.00;;;15.30;99.90;;;;;;4944841;28;20448;-64
2022/08/08 04:59:38;;;;;;;0.00;0.00;;;15.50;99.90;;;;;;4942309;28;20790;-64
2022/08/08 05:02:09;;;;;;;0.00;0.00;;;15.60;99.90;;;;;;4952980;28;20856;-63
2022/08/08 05:04:41;;;;;;;0.00;0.00;;;15.80;99.90;;;;;;4951684;28;20444;-65
2022/08/08 05:07:11;;;;;;;0.00;0.00;;;15.90;99.90;;;;;;4956771;28;20460;-65
2022/08/08 05:09:42;;;;;;;0.00;0.00;;;16.00;99.90;;;;;;4961624;28;20483;-66
2022/08/08 05:12:11;;;;;;;0.00;0.00;;;16.00;99.90;;;;;;4949293;28;20848;-66
2022/08/08 05:14:48;;;;;;;0.00;0.00;;;16.10;99.90;;;;;;4958577;28;20443;-66
2022/08/08 05:17:19;;;;;;;0.00;0.00;;;16.10;99.90;;;;;;4956235;28;20452;-66
2022/08/08 05:19:48;;;;;;;0.00;0.00;;;16.10;99.90;;;;;;4951112;28;20486;-66
2022/08/08 05:22:36;;;;;;;0.00;0.00;;;16.20;99.90;;;;;;4946035;28;20628;-69
2022/08/08 05:25:04;;;;;;;0.00;0.00;;;16.20;99.90;;;;;;4948622;28;20940;-68
2022/08/08 05:27:34;;;;;;;0.00;0.00;;;16.30;99.90;;;;;;4951145;28;20495;-64
2022/08/08 05:30:10;;;;;;;0.00;0.00;;;16.40;99.90;;;;;;4948055;28;20688;-66
2022/08/08 05:32:38;;;;;;;0.00;0.00;;;16.50;99.90;;;;;;4948025;28;20488;-66
2022/08/08 05:35:08;;;;;;;0.00;0.00;;;16.60;99.90;;;;;;4945978;28;20971;-65
2022/08/08 05:37:38;;;;;;;0.00;0.00;;;16.60;99.90;;;;;;4941961;28;20552;-66
2022/08/08 05:40:21;;;;;;;0.00;0.00;;;16.70;99.90;;;;;;4954608;28;21165;-69
2022/08/08 05:43:02;;;;;;;0.00;0.00;;;16.80;99.90;;;;;;4963645;28;20435;-69
2022/08/08 05:45:50;;;;;;;0.00;0.00;;;16.80;99.90;;;;;;4954452;28;20449;-72
2022/08/08 05:48:21;;;;;;;0.00;0.00;;;16.80;99.90;;;;;;4948071;28;20824;-71
2022/08/08 05:50:57;;;;;;;0.00;0.00;;;16.80;99.90;;;;;;4950701;28;20467;-69
2022/08/08 05:53:44;;;;;;;0.00;0.00;;;16.70;99.90;;;;;;4960480;28;20463;-69
2022/08/08 05:56:37;;;;;;;0.00;0.00;;;16.70;99.90;;;;;;4954609;28;20459;-68
2022/08/08 05:59:16;;;;;;;0.00;0.00;;;16.60;99.90;;;;;;4943976;28;20465;-67
2022/08/08 06:03:08;;;;;;;0.00;0.00;;;16.50;99.90;;;;;;4943924;29;20640;-65
2022/08/08 06:05:02;;;;;;;0.00;0.00;;;16.50;99.90;;;;;;4955633;28;20579;-66
2022/08/08 06:07:51;;;;;;;0.00;0.00;;;16.50;99.90;;;;;;4943812;28;20844;-74
2022/08/08 06:10:32;;;;;;;0.00;0.00;;;16.50;99.90;;;;;;4943480;28;20499;-74
2022/08/08 06:13:01;;;;;;;0.00;0.00;;;16.60;99.90;;;;;;4953900;28;20468;-75
2022/08/08 06:15:32;;;;;;;0.00;0.00;;;16.70;99.90;;;;;;4947407;28;20971;-75
2022/08/08 06:18:22;;;;;;;0.00;0.00;;;16.90;99.90;;;;;;4945100;28;20485;-75
2022/08/08 06:20:53;;;;;;;0.00;0.00;;;17.10;99.90;;;;;;4960387;28;20525;-74
2022/08/08 06:23:24;;;;;;;0.00;0.00;;;17.30;99.90;;;;;;4956118;28;20462;-76
2022/08/08 06:26:13;;;;;;;0.00;0.00;;;17.40;99.90;;;;;;4952740;28;20868;-76
2022/08/08 06:29:05;;;;;;;0.00;0.00;;;17.60;99.90;;;;;;4951005;28;20632;-76
2022/08/08 06:32:00;;;;;;;0.00;0.00;;;17.80;99.90;;;;;;4956738;28;20437;-76
2022/08/08 06:34:39;;;;;;;0.00;0.00;;;17.90;99.90;;;;;;4962538;28;20452;-74
2022/08/08 06:37:13;;;;;;;0.00;0.00;;;18.00;99.90;;;;;;4946313;28;20541;-76
2022/08/08 06:39:57;;;;;;;0.00;0.00;;;18.10;99.90;;;;;;4960533;28;20654;-74
2022/08/08 06:42:30;;;;;;;0.00;0.00;;;18.10;99.90;;;;;;4962849;28;20959;-71
2022/08/08 06:44:58;;;;;;;0.00;0.00;;;18.20;99.90;;;;;;4949955;28;20965;-71
2022/08/08 06:47:28;;;;;;;0.00;0.00;;;18.30;99.90;;;;;;4959912;28;20535;-74
2022/08/08 06:50:00;;;;;;;0.00;0.00;;;18.40;99.90;;;;;;4953248;28;20477;-73
2022/08/08 06:52:31;;;;;;;0.00;0.00;;;18.50;99.90;;;;;;4960308;28;20859;-73
2022/08/08 06:55:00;;;;;;;0.00;0.00;;;18.60;99.90;;;;;;4952675;28;21053;-73
2022/08/08 06:57:28;;;;;;;0.00;0.00;;;18.70;99.90;;;;;;4945265;28;20491;-73
2022/08/08 07:00:17;;;;;;;0.00;0.00;;;18.90;99.90;;;;;;4962314;28;20572;-73
2022/08/08 07:03:01;;;;;;;0.00;0.00;;;19.10;99.90;;;;;;4961974;28;20901;-73
2022/08/08 07:05:34;;;;;;;0.00;0.00;;;19.20;99.90;;;;;;4962860;28;20500;-72
2022/08/08 07:08:12;;;;;;;0.00;0.00;;;19.40;99.90;;;;;;4959752;28;20959;-74
2022/08/08 07:10:51;;;;;;;0.00;0.00;;;19.40;99.90;;;;;;4942124;29;20860;-73
2022/08/08 07:13:19;;;;;;;0.00;0.00;;;19.60;99.90;;;;;;4951434;28;20554;-73
2022/08/08 07:15:59;;;;;;;0.00;0.00;;;19.60;99.90;;;;;;4942681;29;20748;-73
2022/08/08 07:18:51;;;;;;;0.00;0.00;;;19.70;99.90;;;;;;4942556;28;20527;-73
2022/08/08 07:21:29;;;;;;;0.00;0.00;;;19.60;99.90;;;;;;4955074;28;20500;-72
2022/08/08 07:24:01;;;;;;;0.00;0.00;;;19.60;99.90;;;;;;4959107;28;20788;-73
2022/08/08 07:26:33;;;;;;;0.00;0.00;;;19.60;99.90;;;;;;4946174;28;20590;-72
2022/08/08 07:29:04;;;;;;;0.00;0.00;;;19.50;99.90;;;;;;4963427;28;20550;-74
2022/08/08 07:31:35;;;;;;;0.00;0.00;;;19.60;99.90;;;;;;4945109;28;20531;-73
2022/08/08 07:34:05;;;;;;;0.00;0.00;;;19.60;99.90;;;;;;4942139;28;20997;-76
2022/08/08 07:36:37;;;;;;;0.00;0.00;;;19.60;99.90;;;;;;4945809;29;20953;-74
2022/08/08 07:39:17;;;;;;;0.00;0.00;;;19.70;99.90;;;;;;4945419;28;20485;-73
2022/08/08 07:41:50;;;;;;;0.00;0.00;;;19.80;99.90;;;;;;4950894;28;20488;-73
2022/08/08 07:44:32;;;;;;;0.00;0.00;;;20.00;99.90;;;;;;4941914;29;20444;-74
2022/08/08 07:47:07;;;;;;;0.00;0.00;;;20.20;99.90;;;;;;4960392;28;20485;-73
2022/08/08 07:49:38;;;;;;;0.00;0.00;;;20.20;99.90;;;;;;4957667;28;20467;-72
2022/08/08 07:52:09;;;;;;;0.00;0.00;;;20.20;99.90;;;;;;4947406;28;20433;-83
2022/08/08 07:54:54;;;;;;;0.00;0.00;;;20.20;99.90;;;;;;4964673;28;20469;-76
2022/08/08 07:57:28;;;;;;;0.00;0.00;;;20.10;99.90;;;;;;4964388;28;20439;-86
2022/08/08 08:00:05;;;;;;;0.00;0.00;;;20.10;99.90;;;;;;4962671;28;20526;-72
2022/08/08 08:02:47;;;;;;;0.00;0.00;;;20.10;99.90;;;;;;4961053;28;20438;-72
2022/08/08 08:05:22;;;;;;;0.00;0.00;;;20.10;99.90;;;;;;4958937;28;20455;-72
2022/08/08 08:08:04;;;;;;;0.00;0.00;;;20.10;99.90;;;;;;4941350;28;20508;-71
2022/08/08 08:10:34;;;;;;;0.00;0.00;;;20.10;99.90;;;;;;4952454;28;20458;-72
2022/08/08 08:13:20;;;;;;;0.00;0.00;;;20.10;99.90;;;;;;4942433;28;20492;-72
2022/08/08 08:16:02;;;;;;;0.00;0.00;;;20.10;99.90;;;;;;4941233;29;20513;-72
2022/08/08 08:18:37;;;;;;;0.00;0.00;;;20.20;99.90;;;;;;4955911;28;21224;-72
2022/08/08 08:21:30;;;;;;;0.00;0.00;;;20.20;99.90;;;;;;4949411;28;20514;-72
2022/08/08 08:24:18;;;;;;;0.00;0.00;;;20.30;99.90;;;;;;4948677;28;20444;-71
2022/08/08 08:26:46;;;;;;;0.00;0.00;;;20.30;99.90;;;;;;4960676;28;20963;-72
2022/08/08 08:29:22;;;;;;;0.00;0.00;;;20.40;99.90;;;;;;4942100;28;20895;-73
2022/08/08 08:31:55;;;;;;;0.00;0.00;;;20.40;99.90;;;;;;4941215;28;20447;-71
2022/08/08 08:34:26;;;;;;;0.00;0.00;;;20.60;99.90;;;;;;4941825;28;20634;-71
2022/08/08 08:37:02;;;;;;;0.00;0.00;;;20.80;99.90;;;;;;4940561;29;20531;-73
2022/08/08 08:39:36;;;;;;;0.00;0.00;;;20.90;99.90;;;;;;4952796;28;20441;-70
2022/08/08 08:42:24;;;;;;;0.00;0.00;;;21.00;99.90;;;;;;4960650;28;20637;-73
2022/08/08 08:45:04;;;;;;;0.00;0.00;;;21.20;99.90;;;;;;4955240;28;21156;-72
2022/08/08 08:47:52;;;;;;;0.00;0.00;;;21.50;99.90;;;;;;4949936;28;20479;-74
2022/08/08 08:50:23;;;;;;;0.00;0.00;;;21.70;99.90;;;;;;4940549;28;20433;-72
2022/08/08 08:53:05;;;;;;;0.00;0.00;;;21.80;99.90;;;;;;4940538;29;20433;-74
2022/08/08 08:55:55;;;;;;;0.00;0.00;;;21.90;99.90;;;;;;4940481;28;20438;-73
2022/08/08 08:58:32;;;;;;;0.00;0.00;;;22.20;99.90;;;;;;4940596;28;20466;-73
2022/08/08 09:01:02;;;;;;;0.00;0.00;;;22.40;99.90;;;;;;4945739;28;20969;-74
2022/08/08 09:03:38;;;;;;;0.00;0.00;;;22.50;99.90;;;;;;4959924;28;20512;-72
2022/08/08 09:06:19;;;;;;;0.00;0.00;;;22.70;99.90;;;;;;4960406;28;20459;-72
2022/08/08 09:09:08;;;;;;;0.00;0.00;;;23.00;99.90;;;;;;4959429;28;20475;-73
2022/08/08 09:11:57;;;;;;;0.00;0.00;;;23.20;99.90;;;;;;4959418;28;20445;-71
2022/08/08 09:14:35;;;;;;;0.00;0.00;;;23.40;99.90;;;;;;4950769;28;20490;-72
2022/08/08 09:17:10;;;;;;;0.00;0.00;;;23.30;99.90;;;;;;4958965;28;21182;-74
2022/08/08 09:19:46;;;;;;;0.00;0.00;;;23.20;99.90;;;;;;4960159;28;20477;-69
2022/08/08 09:22:34;;;;;;;0.00;0.00;;;23.00;99.90;;;;;;4977364;28;20486;-72
2022/08/08 09:25:05;;;;;;;0.00;0.00;;;22.80;99.90;;;;;;4970362;28;20453;-71
2022/08/08 09:27:35;;;;;;;0.00;0.00;;;22.70;99.90;;;;;;4965175;28;20461;-70
2022/08/08 09:30:26;;;;;;;0.00;0.00;;;22.60;99.90;;;;;;4958866;28;20521;-72
2022/08/08 09:32:57;;;;;;;0.00;0.00;;;22.60;99.90;;;;;;4954101;28;20474;-72
2022/08/08 09:35:47;;;;;;;0.00;0.00;;;22.60;99.90;;;;;;4940524;28;20829;-73
2022/08/08 09:38:30;;;;;;;0.00;0.00;;;22.50;99.90;;;;;;4939145;28;20477;-72
2022/08/08 09:41:04;;;;;;;0.00;0.00;;;22.50;99.90;;;;;;4951079;28;20540;-74
2022/08/08 09:43:45;;;;;;;0.00;0.00;;;22.60;99.90;;;;;;4958367;28;20489;-74
2022/08/08 09:46:34;;;;;;;0.00;0.00;;;22.70;99.90;;;;;;4958744;28;20519;-72
2022/08/08 09:49:07;;;;;;;0.00;0.00;;;22.80;99.90;;;;;;4953956;28;20502;-72
2022/08/08 09:51:56;;;;;;;0.00;0.00;;;22.80;99.90;;;;;;4939736;28;20447;-72
2022/08/08 09:54:40;;;;;;;0.00;0.00;;;22.90;99.90;;;;;;4942745;28;20957;-71
2022/08/08 09:57:12;;;;;;;0.00;0.00;;;22.90;99.90;;;;;;4957559;28;20710;-71
2022/08/08 09:59:45;;;;;;;0.00;0.00;;;23.00;99.90;;;;;;4952647;28;20451;-71
2022/08/08 10:02:25;;;;;;;0.00;0.00;;;23.10;99.90;;;;;;4939905;28;20497;-71
2022/08/08 10:05:03;;;;;;;0.00;0.00;;;23.20;99.90;;;;;;4938775;29;20459;-69
2022/08/08 10:07:45;;;;;;;0.00;0.00;;;23.20;99.90;;;;;;4939572;28;20487;-72
2022/08/08 10:10:14;;;;;;;0.00;0.00;;;23.30;99.90;;;;;;4944773;28;20459;-72
2022/08/08 10:12:44;;;;;;;0.00;0.00;;;23.30;99.90;;;;;;4945685;28;20455;-74
2022/08/08 10:15:25;;;;;;;0.00;0.00;;;23.30;99.90;;;;;;4940437;29;20443;-74
2022/08/08 10:17:56;;;;;;;0.00;0.00;;;23.30;99.90;;;;;;4939558;28;20610;-73
2022/08/08 10:20:42;;;;;;;0.00;0.00;;;23.30;99.90;;;;;;4946667;28;20582;-74
2022/08/08 10:23:39;;;;;;;0.00;0.00;;;23.50;99.90;;;;;;4956545;28;20484;-75
2022/08/08 10:26:16;;;;;;;0.00;0.00;;;23.60;99.90;;;;;;4940097;28;20534;-75
2022/08/08 10:29:04;;;;;;;0.00;0.00;;;23.70;99.90;;;;;;4942916;28;20495;-75
2022/08/08 10:34:23;;;;;;;0.00;0.00;;;23.90;99.90;;;;;;4943169;28;20510;-73
2022/08/08 10:36:55;;;;;;;0.00;0.00;;;23.80;99.90;;;;;;4943219;29;20450;-73
2022/08/08 10:39:28;;;;;;;0.00;0.00;;;23.80;99.90;;;;;;4943763;28;20856;-73
2022/08/08 10:42:11;;;;;;;0.00;0.00;;;23.70;99.90;;;;;;4952727;28;20502;-65
2022/08/08 10:44:45;;;;;;;0.00;0.00;;;23.80;99.90;;;;;;4963760;28;20445;-64
2022/08/08 10:47:18;;;;;;;0.00;0.00;;;23.80;99.90;;;;;;4952659;28;20441;-66
2022/08/08 10:49:51;;;;;;;0.00;0.00;;;23.90;99.90;;;;;;4951225;28;20865;-66
2022/08/08 10:52:32;;;;;;;0.00;0.00;;;24.00;99.90;;;;;;4947534;28;20461;-65
2022/08/08 10:55:01;;;;;;;0.00;0.00;;;24.10;99.90;;;;;;4953502;28;20550;-66
2022/08/08 10:57:37;;;;;;;0.00;0.00;;;24.20;99.90;;;;;;4953177;28;20568;-66
2022/08/08 11:00:23;;;;;;;0.00;0.00;;;24.20;99.90;;;;;;4944891;28;20464;-65
2022/08/08 11:02:53;;;;;;;0.00;0.00;;;24.10;99.90;;;;;;4944208;28;20511;-65
2022/08/08 11:05:21;;;;;;;0.00;0.00;;;24.10;99.90;;;;;;4951124;28;20466;-66
2022/08/08 11:07:53;;;;;;;0.00;0.00;;;24.10;99.90;;;;;;4944503;28;20785;-63
2022/08/08 11:10:41;;;;;;;0.00;0.00;;;24.20;99.90;;;;;;4949782;28;20447;-63
2022/08/08 11:13:08;;;;;;;0.00;0.00;;;24.20;99.90;;;;;;4942370;28;20442;-66
2022/08/08 11:15:58;;;;;;;0.00;0.00;;;24.20;99.90;;;;;;4946523;28;20457;-65
2022/08/08 11:18:36;;;;;;;0.00;0.00;;;24.20;99.90;;;;;;4956655;28;20480;-65
2022/08/08 11:21:06;;;;;;;0.00;0.00;;;24.20;99.90;;;;;;4960814;28;20448;-64
2022/08/08 11:23:42;;;;;;;0.00;0.00;;;24.20;99.90;;;;;;4955481;28;20867;-66
2022/08/08 11:26:16;;;;;;;0.00;0.00;;;24.10;99.90;;;;;;4949587;28;20628;-64
2022/08/08 11:28:47;;;;;;;0.00;0.00;;;24.00;99.90;;;;;;4953389;28;20845;-73
2022/08/08 11:31:23;;;;;;;0.00;0.00;;;24.10;99.90;;;;;;4944515;28;20761;-73
2022/08/08 11:33:57;;;;;;;0.00;0.00;;;24.20;99.90;;;;;;4944734;28;20521;-73
2022/08/08 11:36:31;;;;;;;0.00;0.00;;;24.30;99.90;;;;;;4942784;28;20441;-72
2022/08/08 11:39:04;;;;;;;0.00;0.00;;;24.30;99.90;;;;;;4961570;28;20497;-67
2022/08/08 11:41:41;;;;;;;0.00;0.00;;;24.40;99.90;;;;;;4960566;28;20848;-67
2022/08/08 11:44:12;;;;;;;0.00;0.00;;;24.50;99.90;;;;;;4960510;28;20490;-65
2022/08/08 11:46:42;;;;;;;0.00;0.00;;;24.60;99.90;;;;;;4962029;28;21034;-65
2022/08/08 11:49:11;;;;;;;0.00;0.00;;;24.70;99.90;;;;;;4964151;28;20478;-66
2022/08/08 11:51:47;;;;;;;0.00;0.00;;;24.70;99.90;;;;;;4956843;28;20904;-65
2022/08/08 11:54:28;;;;;;;0.00;0.00;;;24.80;99.90;;;;;;4941130;29;20555;-65
2022/08/08 11:57:11;;;;;;;0.00;0.00;;;24.90;99.90;;;;;;4940688;29;20452;-66
2022/08/08 11:59:51;;;;;;;0.00;0.00;;;24.90;99.90;;;;;;4944801;28;20527;-66
2022/08/08 12:02:31;;;;;;;0.00;0.00;;;25.00;99.90;;;;;;4960488;28;20451;-67
2022/08/08 12:05:06;;;;;;;0.00;0.00;;;25.10;99.90;;;;;;4964266;28;20476;-65
2022/08/08 12:07:50;;;;;;;0.00;0.00;;;25.20;99.90;;;;;;4970493;28;20600;-69
2022/08/08 12:10:21;;;;;;;0.00;0.00;;;25.30;99.90;;;;;;4958960;28;20447;-69
2022/08/08 12:12:51;;;;;;;0.00;0.00;;;25.40;99.90;;;;;;4943030;28;20889;-77
2022/08/08 12:15:29;;;;;;;0.00;0.00;;;25.50;99.90;;;;;;4943278;28;20730;-77
2022/08/08 12:18:17;;;;;;;0.00;0.00;;;25.60;99.90;;;;;;4955202;28;20488;-75
2022/08/08 12:20:49;;;;;;;0.00;0.00;;;25.60;99.90;;;;;;4974106;28;20458;-79
2022/08/08 12:23:28;;;;;;;0.00;0.00;;;25.60;99.90;;;;;;4946544;28;20649;-81
2022/08/08 12:26:11;;;;;;;0.00;0.00;;;25.70;99.90;;;;;;4944584;29;20449;-79
2022/08/08 12:28:55;;;;;;;0.00;0.00;;;25.60;99.90;;;;;;4956300;28;20495;-86
2022/08/08 12:31:33;;;;;;;0.00;0.00;;;25.60;99.90;;;;;;4961011;28;20449;-65
2022/08/08 12:34:14;;;;;;;0.00;0.00;;;25.60;99.90;;;;;;4959989;28;21038;-64
2022/08/08 12:36:46;;;;;;;0.00;0.00;;;25.60;99.90;;;;;;4960179;28;20528;-64
2022/08/08 12:39:26;;;;;;;0.00;0.00;;;25.50;99.90;;;;;;4960203;28;20546;-66
2022/08/08 12:42:14;;;;;;;0.00;0.00;;;25.50;99.90;;;;;;4953494;28;20655;-65
2022/08/08 12:44:48;;;;;;;0.00;0.00;;;25.30;99.90;;;;;;4967563;28;20705;-62
2022/08/08 12:47:27;;;;;;;0.00;0.00;;;25.30;99.90;;;;;;4962022;28;20565;-64
2022/08/08 12:50:16;;;;;;;0.00;0.00;;;25.10;99.90;;;;;;4968900;28;20979;-65
2022/08/08 12:52:53;;;;;;;0.00;0.00;;;25.10;99.90;;;;;;4971662;28;20566;-65
2022/08/08 12:55:22;;;;;;;0.00;0.00;;;25.00;99.90;;;;;;4974365;28;20454;-64
2022/08/08 12:58:10;;;;;;;0.00;0.00;;;25.00;99.90;;;;;;4971469;28;20521;-65
2022/08/08 13:00:46;;;;;;;0.00;0.00;;;25.00;99.90;;;;;;4970123;28;20458;-65
2022/08/08 13:03:28;;;;;;;0.00;0.00;;;25.10;99.90;;;;;;4961074;28;20494;-65
2022/08/08 13:06:12;;;;;;;0.00;0.00;;;25.20;99.90;;;;;;4968506;28;20542;-65
2022/08/08 13:08:43;;;;;;;0.00;0.00;;;25.30;99.90;;;;;;4968071;28;20482;-64
2022/08/08 13:11:25;;;;;;;0.00;0.00;;;25.30;99.90;;;;;;4968108;28;20446;-65
2022/08/08 13:14:14;;;;;;;0.00;0.00;;;25.20;99.90;;;;;;4971716;28;20446;-64
2022/08/08 13:16:43;;;;;;;0.00;0.00;;;25.10;99.90;;;;;;4969010;28;20508;-64
2022/08/08 13:19:16;;;;;;;0.00;0.00;;;25.00;99.90;;;;;;4968811;28;20512;-64
2022/08/08 13:21:48;;;;;;;0.00;0.00;;;25.00;99.90;;;;;;4967142;28;20842;-64
2022/08/08 13:24:35;;;;;;;0.00;0.00;;;25.00;99.90;;;;;;4970392;28;20837;-64
2022/08/08 13:27:13;;;;;;;0.00;0.00;;;25.00;99.90;;;;;;4966815;28;20513;-64
2022/08/08 13:29:49;;;;;;;0.00;0.00;;;25.10;99.90;;;;;;4967797;28;20917;-65
2022/08/08 13:32:20;;;;;;;0.00;0.00;;;25.20;99.90;;;;;;4960899;28;20518;-65
2022/08/08 13:34:58;;;;;;;0.00;0.00;;;25.10;99.90;;;;;;4956732;28;20458;-65
2022/08/08 13:37:30;;;;;;;0.00;0.00;;;25.20;99.90;;;;;;4958213;28;20455;-65
2022/08/08 13:40:18;;;;;;;0.00;0.00;;;25.10;99.90;;;;;;4967198;28;20492;-65
2022/08/08 13:42:55;;;;;;;0.00;0.00;;;25.00;99.90;;;;;;4965977;28;20821;-64
2022/08/08 13:45:25;;;;;;;0.00;0.00;;;25.00;99.90;;;;;;4959229;28;21082;-66
2022/08/08 13:47:56;;;;;;;0.00;0.00;;;25.00;99.90;;;;;;4959000;28;20565;-66
2022/08/08 13:50:25;;;;;;;0.00;0.00;;;25.00;99.90;;;;;;4958915;28;20442;-66
2022/08/08 13:53:12;;;;;;;0.00;0.00;;;25.00;99.90;;;;;;4958920;28;20447;-67
2022/08/08 13:55:58;;;;;;;0.00;0.00;;;24.90;99.90;;;;;;4959049;28;20801;-65
2022/08/08 13:58:27;;;;;;;0.00;0.00;;;24.80;99.90;;;;;;4959820;28;20733;-65
2022/08/08 14:00:56;;;;;;;0.00;0.00;;;24.70;99.90;;;;;;4957488;28;20529;-65
2022/08/08 14:03:28;;;;;;;0.00;0.00;;;24.70;99.90;;;;;;4961207;28;20523;-65
2022/08/08 14:06:15;;;;;;;0.00;0.00;;;24.70;99.90;;;;;;4948767;28;20448;-64
2022/08/08 14:09:02;;;;;;;0.00;0.00;;;24.70;99.90;;;;;;4947901;28;20910;-64